Time;durP1;ratioP1;P1;durP2;ratioP2;P2;SDS_P1;SDS_P2;PMS_P1;PMS_P2;Temp;Humidity;BMP_temperature;BMP_pressure;BME280_temperature;BME280_humidity;BME280_pressure;Samples;Min_cycle;Max_cycle;Signal;HPM_P1;HPM_P2
2023/08/31 00:00:00;;;;;;;1.80;1.65;;;;;;;11.09;100.00;100602.13;5016217;28;20063;-76
2023/08/31 00:02:28;;;;;;;1.70;1.60;;;;;;;11.08;100.00;100602.16;5070190;28;20036;-77
2023/08/31 00:04:55;;;;;;;2.88;1.73;;;;;;;11.09;100.00;100598.59;5029913;28;20052;-76
2023/08/31 00:07:24;;;;;;;3.00;1.73;;;;;;;11.10;100.00;100600.38;5065622;28;20035;-76
2023/08/31 00:09:51;;;;;;;3.13;1.63;;;;;;;11.08;100.00;100594.25;5041390;28;20055;-76
2023/08/31 00:12:19;;;;;;;4.88;1.50;;;;;;;11.07;100.00;100595.09;5048161;28;20048;-77
2023/08/31 00:14:47;;;;;;;1.58;1.48;;;;;;;11.04;100.00;100592.47;5019638;28;20825;-76
2023/08/31 00:17:14;;;;;;;4.63;1.73;;;;;;;11.01;100.00;100593.38;5067506;28;20040;-77
2023/08/31 00:19:43;;;;;;;2.70;1.60;;;;;;;11.00;100.00;100580.19;5054255;28;20045;-76
2023/08/31 00:22:10;;;;;;;6.15;1.85;;;;;;;10.99;100.00;100583.72;5048229;28;20052;-76
2023/08/31 00:24:38;;;;;;;2.22;1.45;;;;;;;10.98;100.00;100589.84;5051696;28;20048;-77
2023/08/31 00:27:06;;;;;;;6.53;1.63;;;;;;;10.97;100.00;100582.84;5018343;28;20119;-76
2023/08/31 00:29:35;;;;;;;1.67;1.30;;;;;;;10.97;100.00;100580.22;5051164;28;20048;-75
2023/08/31 00:32:03;;;;;;;4.10;1.38;;;;;;;10.97;100.00;100593.38;5024772;28;20052;-76
2023/08/31 00:34:32;;;;;;;3.83;1.77;;;;;;;10.96;100.00;100583.72;5048186;28;20048;-76
2023/08/31 00:36:59;;;;;;;2.05;1.52;;;;;;;10.96;100.00;100591.63;5044725;28;20036;-76
2023/08/31 00:39:28;;;;;;;1.98;1.13;;;;;;;10.96;100.00;100597.75;5063357;28;20055;-76
2023/08/31 00:41:56;;;;;;;1.73;1.27;;;;;;;10.98;100.00;100600.41;5045218;28;20520;-76
2023/08/31 00:44:24;;;;;;;2.63;1.20;;;;;;;10.97;100.00;100588.97;5037866;28;20059;-76
2023/08/31 00:46:52;;;;;;;5.55;1.42;;;;;;;10.98;100.00;100590.72;5002446;28;20053;-76
2023/08/31 00:49:19;;;;;;;1.67;1.30;;;;;;;10.95;100.00;100596.03;5037613;28;20056;-76
2023/08/31 00:51:49;;;;;;;2.03;1.40;;;;;;;10.97;100.00;100593.38;5050816;28;20056;-76
2023/08/31 00:54:22;;;;;;;2.85;1.60;;;;;;;10.97;100.00;100593.38;5061206;28;20109;-77
2023/08/31 00:56:54;;;;;;;2.15;1.48;;;;;;;10.96;100.00;100591.63;5019789;28;20059;-76
2023/08/31 00:59:21;;;;;;;4.45;1.90;;;;;;;10.95;100.00;100601.28;5047226;28;20054;-76
2023/08/31 01:02:07;;;;;;;4.30;1.30;;;;;;;10.91;100.00;100603.06;5033844;28;20049;-76
2023/08/31 01:04:46;;;;;;;2.63;1.60;;;;;;;10.91;100.00;100602.19;5052567;28;20056;-77
2023/08/31 01:07:23;;;;;;;4.22;1.85;;;;;;;10.89;100.00;100593.41;5029667;28;20044;-77
2023/08/31 01:10:07;;;;;;;2.10;1.67;;;;;;;10.87;100.00;100603.09;5066192;28;20053;-76
2023/08/31 01:12:40;;;;;;;7.68;1.83;;;;;;;10.84;100.00;100600.44;5056884;28;20516;-76
2023/08/31 01:15:11;;;;;;;5.38;1.75;;;;;;;10.84;100.00;100603.06;5038407;28;20036;-76
2023/08/31 01:17:52;;;;;;;3.92;1.70;;;;;;;10.81;100.00;100592.53;5033017;28;20040;-77
2023/08/31 01:20:32;;;;;;;2.95;1.80;;;;;;;10.82;100.00;100591.66;5054163;28;20056;-77
2023/08/31 01:23:07;;;;;;;3.90;1.75;;;;;;;10.80;100.00;100591.66;5063959;28;20064;-77
2023/08/31 01:25:36;;;;;;;5.55;1.95;;;;;;;10.81;100.00;100603.06;5045183;28;20071;-77
2023/08/31 01:28:06;;;;;;;3.28;1.95;;;;;;;10.79;100.00;100607.47;5046806;28;20436;-77
2023/08/31 01:30:34;;;;;;;3.90;1.88;;;;;;;10.79;100.00;100605.69;5049580;28;20409;-77
2023/08/31 01:33:02;;;;;;;1.77;1.60;;;;;;;10.77;100.00;100611.88;5019782;28;20497;-76
2023/08/31 01:35:44;;;;;;;3.08;2.17;;;;;;;10.73;100.00;100603.94;5059663;28;20048;-77
2023/08/31 01:38:18;;;;;;;4.72;1.83;;;;;;;10.72;100.00;100604.84;5055266;28;20049;-78
2023/08/31 01:40:45;;;;;;;3.55;2.13;;;;;;;10.71;100.00;100605.72;5067318;28;20052;-77
2023/08/31 01:43:14;;;;;;;2.72;2.08;;;;;;;10.70;100.00;100600.47;5065587;28;20687;-76
2023/08/31 01:45:42;;;;;;;4.82;2.83;;;;;;;10.72;100.00;100601.34;5041541;28;20059;-76
2023/08/31 01:48:13;;;;;;;4.72;2.20;;;;;;;10.69;100.00;100604.84;5015816;28;20053;-76
2023/08/31 01:50:41;;;;;;;6.05;1.88;;;;;;;10.69;100.00;100602.19;5065913;28;20033;-76
2023/08/31 01:53:08;;;;;;;2.20;2.00;;;;;;;10.68;100.00;100592.56;5035407;28;20425;-76
2023/08/31 01:55:37;;;;;;;2.75;1.90;;;;;;;10.70;100.00;100592.56;5045330;28;20059;-76
2023/08/31 01:58:05;;;;;;;5.40;2.17;;;;;;;10.69;100.00;100596.06;5052995;28;20059;-76
2023/08/31 02:00:34;;;;;;;3.53;1.80;;;;;;;10.67;100.00;100601.34;5066221;28;20059;-76
2023/08/31 02:03:02;;;;;;;3.05;1.70;;;;;;;10.64;100.00;100590.81;5034881;28;20051;-76
2023/08/31 02:05:30;;;;;;;6.07;2.28;;;;;;;10.64;100.00;100588.19;5009909;28;20059;-77
2023/08/31 02:07:57;;;;;;;5.35;1.90;;;;;;;10.66;100.00;100601.31;5044029;28;20049;-76
2023/08/31 02:10:26;;;;;;;3.30;2.10;;;;;;;10.64;100.00;100592.53;5067349;28;20422;-76
2023/08/31 02:12:53;;;;;;;2.42;2.00;;;;;;;10.63;100.00;100589.03;5052141;28;20506;-77
2023/08/31 02:15:22;;;;;;;2.90;2.40;;;;;;;10.62;100.00;100594.31;5067156;28;20687;-77
2023/08/31 02:17:49;;;;;;;5.10;2.10;;;;;;;10.59;100.00;100591.69;5031269;28;20044;-77
2023/08/31 02:20:17;;;;;;;4.88;1.90;;;;;;;10.59;100.00;100594.34;5026851;28;21081;-77
2023/08/31 02:22:44;;;;;;;3.85;1.85;;;;;;;10.59;100.00;100594.34;5038522;28;20543;-77
2023/08/31 02:25:13;;;;;;;4.78;2.00;;;;;;;10.60;100.00;100593.44;5046816;28;20060;-77
2023/08/31 02:27:41;;;;;;;3.40;1.83;;;;;;;10.61;100.00;100592.56;5041014;28;20041;-77
2023/08/31 02:30:09;;;;;;;5.50;2.70;;;;;;;10.62;100.00;100589.03;5063397;28;20118;-77
2023/08/31 02:32:36;;;;;;;3.47;1.60;;;;;;;10.63;100.00;100589.03;5058594;28;20037;-77
2023/08/31 02:35:04;;;;;;;8.52;2.17;;;;;;;10.64;100.00;100589.91;5023068;28;20048;-77
2023/08/31 02:37:33;;;;;;;7.20;2.13;;;;;;;10.63;100.00;100588.19;5010269;28;20036;-77
2023/08/31 02:40:01;;;;;;;2.70;1.88;;;;;;;10.62;100.00;100584.63;5050683;28;20486;-77
2023/08/31 02:42:28;;;;;;;5.60;2.33;;;;;;;10.63;100.00;100588.19;5047385;28;20068;-76
2023/08/31 02:44:55;;;;;;;3.60;1.73;;;;;;;10.62;100.00;100578.50;5048980;28;20049;-77
2023/08/31 02:47:23;;;;;;;3.95;1.77;;;;;;;10.61;100.00;100576.75;5042856;28;20053;-77
2023/08/31 02:49:50;;;;;;;3.50;1.63;;;;;;;10.62;100.00;100579.38;5038664;28;20060;-77
2023/08/31 02:52:17;;;;;;;1.70;1.60;;;;;;;10.61;100.00;100582.03;4997843;28;20155;-77
2023/08/31 02:54:45;;;;;;;4.13;2.25;;;;;;;10.60;100.00;100578.50;5050024;28;20410;-77
2023/08/31 02:57:12;;;;;;;3.55;2.03;;;;;;;10.60;100.00;100578.50;5061103;28;20044;-76
2023/08/31 02:59:40;;;;;;;6.82;1.60;;;;;;;10.60;100.00;100572.34;5062778;28;20386;-77
2023/08/31 03:02:08;;;;;;;4.18;1.65;;;;;;;10.60;100.00;100577.63;5058928;28;20060;-76
2023/08/31 03:04:35;;;;;;;3.47;1.85;;;;;;;10.58;100.00;100575.00;5043340;28;20059;-76
2023/08/31 03:07:06;;;;;;;2.28;1.50;;;;;;;10.57;100.00;100572.34;5014861;28;20048;-76
2023/08/31 03:09:34;;;;;;;2.35;1.70;;;;;;;10.56;100.00;100565.34;5062594;28;20029;-77
2023/08/31 03:12:01;;;;;;;3.17;1.63;;;;;;;10.55;100.00;100567.09;5060279;28;20513;-76
2023/08/31 03:14:29;;;;;;;4.90;1.55;;;;;;;10.53;100.00;100574.13;5064176;28;20356;-76
2023/08/31 03:16:56;;;;;;;4.43;2.92;;;;;;;10.51;100.00;100576.78;5027766;28;20412;-77
2023/08/31 03:19:24;;;;;;;7.72;2.35;;;;;;;10.48;100.00;100584.66;5033193;28;20044;-77
2023/08/31 03:21:52;;;;;;;2.30;2.10;;;;;;;10.46;100.00;100578.53;5059593;28;20057;-77
2023/08/31 03:24:20;;;;;;;2.97;1.73;;;;;;;10.44;100.00;100571.50;5021911;28;20056;-77
2023/08/31 03:26:48;;;;;;;1.83;1.67;;;;;;;10.42;100.00;100576.78;5068110;28;20045;-76
2023/08/31 03:29:15;;;;;;;4.30;1.70;;;;;;;10.42;100.00;100581.16;5046985;28;20048;-77
2023/08/31 03:31:42;;;;;;;6.43;2.50;;;;;;;10.39;100.00;100578.53;5047318;28;20045;-77
2023/08/31 03:34:10;;;;;;;4.53;2.25;;;;;;;10.35;100.00;100569.75;5040327;28;20053;-76
2023/08/31 03:36:37;;;;;;;4.47;1.55;;;;;;;10.34;100.00;100581.19;5060767;28;20037;-77
2023/08/31 03:39:04;;;;;;;2.72;1.70;;;;;;;10.33;100.00;100589.94;5013859;28;20064;-77
2023/08/31 03:41:32;;;;;;;4.68;1.70;;;;;;;10.30;100.00;100580.28;5047068;28;20049;-77
2023/08/31 03:43:59;;;;;;;7.75;2.53;;;;;;;10.29;100.00;100583.75;5066622;28;20419;-76
2023/08/31 03:46:27;;;;;;;2.53;1.77;;;;;;;10.31;100.00;100589.94;5049881;28;20056;-77
2023/08/31 03:48:54;;;;;;;4.78;1.70;;;;;;;10.31;100.00;100578.53;5011452;28;20049;-77
2023/08/31 03:51:22;;;;;;;3.17;1.73;;;;;;;10.30;100.00;100577.66;5014092;28;20049;-77
2023/08/31 03:53:49;;;;;;;10.68;2.40;;;;;;;10.29;100.00;100577.63;5027156;28;20045;-77
2023/08/31 03:56:18;;;;;;;2.17;1.40;;;;;;;10.29;100.00;100586.38;4996374;28;20063;-77
2023/08/31 03:58:45;;;;;;;3.88;1.70;;;;;;;10.29;100.00;100589.03;5010198;28;20411;-77
2023/08/31 04:01:14;;;;;;;5.60;4.18;;;;;;;10.28;100.00;100591.66;5002625;28;20042;-77
2023/08/31 04:03:42;;;;;;;2.85;2.05;;;;;;;10.28;100.00;100586.38;5002606;28;20447;-77
2023/08/31 04:06:10;;;;;;;1.92;1.50;;;;;;;10.27;100.00;100585.50;5010494;28;20057;-76
2023/08/31 04:08:40;;;;;;;5.93;1.90;;;;;;;10.28;100.00;100587.28;5020736;28;20053;-76
2023/08/31 04:11:08;;;;;;;3.42;1.70;;;;;;;10.27;100.00;100577.63;4979563;28;20049;-77
2023/08/31 04:13:37;;;;;;;2.85;1.85;;;;;;;10.26;100.00;100586.38;5004612;28;20045;-77
2023/08/31 04:16:05;;;;;;;4.88;1.80;;;;;;;10.24;100.00;100582.88;5024077;28;20045;-77
2023/08/31 04:18:34;;;;;;;4.10;2.28;;;;;;;10.24;100.00;100584.63;5023136;28;20052;-75
2023/08/31 04:21:03;;;;;;;8.05;6.38;;;;;;;10.22;100.00;100589.91;4992060;28;20053;-76
2023/08/31 04:23:30;;;;;;;2.92;2.15;;;;;;;10.23;100.00;100593.44;4999593;28;20491;-75
2023/08/31 04:25:59;;;;;;;3.60;2.30;;;;;;;10.21;100.00;100589.88;4991903;28;20057;-77
2023/08/31 04:28:26;;;;;;;3.20;1.77;;;;;;;10.19;100.00;100587.28;5024725;28;20052;-76
2023/08/31 04:30:54;;;;;;;4.75;2.15;;;;;;;10.19;100.00;100597.81;4999609;28;20046;-76
2023/08/31 04:33:21;;;;;;;2.00;1.90;;;;;;;10.20;100.00;100593.41;5026850;28;20037;-77
2023/08/31 04:35:49;;;;;;;5.82;1.85;;;;;;;10.20;100.00;100594.28;5024576;28;20179;-76
2023/08/31 04:38:16;;;;;;;2.78;1.70;;;;;;;10.21;100.00;100588.16;4994895;28;20053;-76
2023/08/31 04:40:44;;;;;;;4.95;2.00;;;;;;;10.24;100.00;100587.25;5006713;28;20057;-77
2023/08/31 04:43:11;;;;;;;2.30;2.10;;;;;;;10.25;100.00;100589.91;4975185;28;20467;-76
2023/08/31 04:45:39;;;;;;;4.80;2.13;;;;;;;10.28;100.00;100591.66;5006508;28;20049;-76
2023/08/31 04:48:07;;;;;;;2.63;2.13;;;;;;;10.30;100.00;100600.44;5033309;28;20057;-76
2023/08/31 04:50:35;;;;;;;1.92;1.75;;;;;;;10.32;100.00;100594.34;5054566;28;20067;-76
2023/08/31 04:53:04;;;;;;;5.43;2.15;;;;;;;10.36;100.00;100592.59;5048834;28;20416;-76
2023/08/31 04:55:31;;;;;;;3.05;2.00;;;;;;;10.37;100.00;100601.34;5055953;28;20494;-76
2023/08/31 04:57:59;;;;;;;4.35;2.20;;;;;;;10.38;100.00;100598.72;5020383;28;20049;-76
2023/08/31 05:00:26;;;;;;;6.53;2.10;;;;;;;10.41;100.00;100600.47;5064586;28;20044;-76
2023/08/31 05:02:54;;;;;;;3.05;2.00;;;;;;;10.45;100.00;100610.13;5062166;28;20043;-76
2023/08/31 05:05:21;;;;;;;3.70;1.92;;;;;;;10.47;100.00;100611.91;5032080;28;20409;-76
2023/08/31 05:07:49;;;;;;;2.60;1.77;;;;;;;10.49;100.00;100623.31;5046195;28;20083;-76
2023/08/31 05:10:16;;;;;;;3.70;1.75;;;;;;;10.51;100.00;100621.56;5034085;28;20025;-76
2023/08/31 05:12:44;;;;;;;3.10;1.92;;;;;;;10.52;100.00;100625.94;4990252;28;20045;-76
2023/08/31 05:15:11;;;;;;;2.17;1.85;;;;;;;10.55;100.00;100622.44;5039417;28;20049;-77
2023/08/31 05:17:39;;;;;;;2.72;2.20;;;;;;;10.58;100.00;100626.81;5041166;28;20063;-76
2023/08/31 05:20:08;;;;;;;2.70;1.90;;;;;;;10.59;100.00;100623.31;5028892;28;20040;-76
2023/08/31 05:22:36;;;;;;;2.13;1.75;;;;;;;10.61;100.00;100627.69;5048290;28;20068;-76
2023/08/31 05:25:04;;;;;;;2.60;2.10;;;;;;;10.63;100.00;100636.47;5052597;28;20037;-77
2023/08/31 05:27:31;;;;;;;1.98;1.80;;;;;;;10.66;100.00;100633.84;4995319;28;20067;-77
2023/08/31 05:29:58;;;;;;;4.20;2.03;;;;;;;10.69;100.00;100631.19;5048534;28;20048;-77
2023/08/31 05:32:28;;;;;;;2.00;1.90;;;;;;;10.72;100.00;100631.19;5065431;28;20044;-76
2023/08/31 05:34:56;;;;;;;6.18;2.40;;;;;;;10.75;100.00;100640.84;5039468;28;20067;-77
2023/08/31 05:37:23;;;;;;;5.72;2.20;;;;;;;10.79;100.00;100639.97;5066252;28;20040;-77
2023/08/31 05:39:51;;;;;;;5.00;2.08;;;;;;;10.84;100.00;100634.72;5046428;28;20052;-76
2023/08/31 05:42:18;;;;;;;5.25;2.08;;;;;;;10.87;100.00;100638.22;5055564;28;20048;-77
2023/08/31 05:44:46;;;;;;;4.50;2.17;;;;;;;10.90;100.00;100632.91;5027829;28;20071;-77
2023/08/31 05:47:13;;;;;;;2.65;2.45;;;;;;;10.95;100.00;100648.75;5035374;28;20064;-76
2023/08/31 05:49:40;;;;;;;4.90;2.33;;;;;;;10.99;100.00;100639.09;5047483;28;20043;-76
2023/08/31 05:52:08;;;;;;;4.70;2.15;;;;;;;11.04;100.00;100643.47;5051384;28;20060;-77
2023/08/31 05:54:35;;;;;;;4.78;2.33;;;;;;;11.08;100.00;100649.63;5037900;28;20859;-76
2023/08/31 05:57:05;;;;;;;2.72;2.42;;;;;;;11.12;100.00;100657.50;5043874;28;20910;-76
2023/08/31 05:59:32;;;;;;;5.20;3.30;;;;;;;11.17;100.00;100657.50;5002319;28;20529;-76
2023/08/31 06:02:00;;;;;;;6.00;2.55;;;;;;;11.20;100.00;100653.97;5035018;28;20843;-77
2023/08/31 06:04:27;;;;;;;7.22;2.55;;;;;;;11.23;100.00;100660.13;5035484;28;20052;-76
2023/08/31 06:06:55;;;;;;;2.47;2.10;;;;;;;11.28;100.00;100657.47;5068153;28;20059;-77
2023/08/31 06:09:22;;;;;;;4.05;2.20;;;;;;;11.31;100.00;100666.25;5062314;28;20056;-76
2023/08/31 06:11:50;;;;;;;7.45;2.20;;;;;;;11.36;100.00;100666.25;5042868;28;20052;-75
2023/08/31 06:14:17;;;;;;;4.38;2.05;;;;;;;11.42;100.00;100660.06;4999526;28;20052;-77
2023/08/31 06:16:44;;;;;;;5.10;2.10;;;;;;;11.47;100.00;100664.47;5068765;28;20559;-76
2023/08/31 06:19:15;;;;;;;5.95;2.17;;;;;;;11.61;100.00;100667.03;5061578;28;20040;-76
2023/08/31 06:21:42;;;;;;;3.50;1.80;;;;;;;11.94;100.00;100666.91;5033115;28;20461;-76
2023/08/31 06:24:12;;;;;;;4.13;2.45;;;;;;;12.21;100.00;100671.16;5049570;28;20409;-77
2023/08/31 06:26:40;;;;;;;5.22;2.05;;;;;;;12.48;100.00;100667.47;5018794;28;20087;-77
2023/08/31 06:29:10;;;;;;;4.80;1.92;;;;;;;12.52;100.00;100679.75;5042019;28;20080;-77
2023/08/31 06:31:38;;;;;;;2.55;1.70;;;;;;;12.59;100.00;100676.19;5044132;28;20048;-76
2023/08/31 06:34:05;;;;;;;2.72;1.67;;;;;;;12.63;100.00;100667.34;5065433;28;20048;-76
2023/08/31 06:36:33;;;;;;;4.95;1.90;;;;;;;12.67;100.00;100668.19;5046658;28;20048;-76
2023/08/31 06:39:01;;;;;;;3.28;1.30;;;;;;;12.69;100.00;100676.97;5062148;28;20053;-76
2023/08/31 06:41:28;;;;;;;2.50;1.40;;;;;;;12.70;100.00;100677.84;5060501;28;20045;-75
2023/08/31 06:43:56;;;;;;;4.47;1.58;;;;;;;12.75;100.00;100681.34;5033329;28;20506;-76
2023/08/31 06:46:23;;;;;;;7.90;2.25;;;;;;;12.83;100.00;100674.22;5020466;28;20048;-76
2023/08/31 06:48:52;;;;;;;1.95;1.30;;;;;;;12.97;100.00;100677.63;5045940;28;20060;-76
2023/08/31 06:51:20;;;;;;;5.95;1.48;;;;;;;13.15;100.00;100679.19;5065458;28;20485;-75
2023/08/31 06:53:51;;;;;;;7.07;1.55;;;;;;;13.26;100.00;100685.25;5050353;28;20551;-75
2023/08/31 06:56:19;;;;;;;5.47;1.48;;;;;;;13.38;100.00;100679.00;5028589;28;20045;-77
2023/08/31 06:58:46;;;;;;;2.17;1.17;;;;;;;13.50;100.00;100683.28;5056977;28;20401;-76
2023/08/31 07:01:13;;;;;;;4.78;1.63;;;;;;;13.62;100.00;100685.75;5005604;28;20056;-76
2023/08/31 07:03:41;;;;;;;7.05;1.50;;;;;;;13.80;100.00;100691.75;5050814;28;20055;-76
2023/08/31 07:06:08;;;;;;;8.07;1.98;;;;;;;13.92;100.00;100688.94;5040595;28;20502;-76
2023/08/31 07:08:37;;;;;;;2.90;1.10;;;;;;;14.01;100.00;100698.53;5046730;28;20414;-76
2023/08/31 07:11:04;;;;;;;3.10;1.10;;;;;;;14.14;100.00;100701.88;5027692;28;20489;-76
2023/08/31 07:13:32;;;;;;;1.85;1.13;;;;;;;14.40;100.00;100698.84;5050920;28;20044;-76
2023/08/31 07:15:59;;;;;;;3.67;1.17;;;;;;;14.75;100.00;100698.34;5015098;28;20056;-76
2023/08/31 07:18:27;;;;;;;5.28;1.45;;;;;;;15.05;100.00;100698.72;5049712;28;20053;-76
2023/08/31 07:20:54;;;;;;;4.60;1.13;;;;;;;15.29;100.00;100701.84;5053303;28;20405;-76
2023/08/31 07:23:22;;;;;;;3.15;1.17;;;;;;;15.54;100.00;100694.28;5053658;28;20170;-76
2023/08/31 07:25:49;;;;;;;1.83;0.90;;;;;;;15.69;100.00;100695.72;5060991;28;20060;-76
2023/08/31 07:28:17;;;;;;;1.55;0.95;;;;;;;15.71;100.00;100694.81;5054005;28;20037;-76
2023/08/31 07:30:45;;;;;;;3.75;1.08;;;;;;;15.67;100.00;100697.56;4976268;28;20048;-76
2023/08/31 07:33:12;;;;;;;3.20;0.90;;;;;;;15.68;100.00;100699.31;5052014;28;20052;-76
2023/08/31 07:35:58;;;;;;;1.95;0.95;;;;;;;15.71;100.00;100710.75;5034820;28;20064;-77
2023/08/31 07:38:29;;;;;;;1.83;0.68;;;;;;;15.69;100.00;100707.25;5064067;28;20410;-76
2023/08/31 07:40:57;;;;;;;4.22;0.90;;;;;;;15.75;100.00;100708.94;5052322;28;20052;-76
2023/08/31 07:43:28;;;;;;;1.58;1.10;;;;;;;15.81;100.00;100711.47;5074948;28;20056;-76
2023/08/31 07:45:55;;;;;;;2.03;0.60;;;;;;;15.85;100.00;100712.28;5013445;28;20055;-76
2023/08/31 07:48:23;;;;;;;2.67;0.77;;;;;;;15.84;100.00;100715.84;5072684;28;20056;-77
2023/08/31 07:50:50;;;;;;;1.50;0.85;;;;;;;15.90;100.00;100710.41;5053148;28;20049;-76
2023/08/31 07:53:17;;;;;;;2.58;0.82;;;;;;;15.91;100.00;100714.81;5056759;28;20680;-75
2023/08/31 07:55:54;;;;;;;1.42;0.75;;;;;;;15.94;100.00;100712.97;5035440;28;20040;-76
2023/08/31 07:58:22;;;;;;;0.93;0.57;;;;;;;16.02;100.00;100719.91;5064659;28;20054;-76
2023/08/31 08:00:53;;;;;;;5.13;0.65;;;;;;;16.08;100.00;100712.66;5037414;28;20044;-77
2023/08/31 08:03:22;;;;;;;3.97;0.80;;;;;;;16.17;100.00;100715.13;4997394;28;20053;-76
2023/08/31 08:05:50;;;;;;;2.65;0.60;;;;;;;16.20;100.00;100718.63;5053610;28;20060;-76
2023/08/31 08:08:20;;;;;;;1.10;0.82;;;;;;;16.22;100.00;100725.66;5059394;28;20055;-76
2023/08/31 08:10:52;;;;;;;0.50;0.50;;;;;;;16.22;100.00;100723.00;5050507;28;20044;-77
2023/08/31 08:13:19;;;;;;;2.17;1.00;;;;;;;16.29;100.00;100724.59;5061197;28;20057;-77
2023/08/31 08:15:48;;;;;;;3.20;0.68;;;;;;;16.41;100.00;100723.47;5062960;28;20048;-77
2023/08/31 08:18:16;;;;;;;3.63;0.65;;;;;;;16.51;100.00;100724.13;4999092;28;20055;-77
2023/08/31 08:20:47;;;;;;;2.65;0.50;;;;;;;16.62;100.00;100722.09;5059920;28;20041;-76
2023/08/31 08:23:16;;;;;;;1.73;0.63;;;;;;;16.78;100.00;100725.25;5063575;28;20060;-77
2023/08/31 08:25:44;;;;;;;2.90;1.08;;;;;;;16.90;100.00;100737.41;5062147;28;20047;-75
2023/08/31 08:28:11;;;;;;;0.82;0.73;;;;;;;17.01;100.00;100735.34;5052645;28;20053;-76
2023/08/31 08:30:38;;;;;;;2.10;0.55;;;;;;;17.17;100.00;100734.97;5031244;28;20045;-76
2023/08/31 08:33:06;;;;;;;4.40;1.05;;;;;;;17.39;100.00;100725.50;5008951;28;20185;-76
2023/08/31 08:35:37;;;;;;;3.10;0.68;;;;;;;17.40;100.00;100737.91;5033482;28;20063;-76
2023/08/31 08:38:05;;;;;;;2.33;0.60;;;;;;;17.17;100.00;100750.94;5062804;28;20055;-76
2023/08/31 08:40:34;;;;;;;1.30;0.50;;;;;;;17.01;100.00;100753.13;5062415;28;20048;-76
2023/08/31 08:43:02;;;;;;;1.95;0.80;;;;;;;16.82;100.00;100760.63;5044547;28;20060;-76
2023/08/31 08:45:36;;;;;;;2.55;0.80;;;;;;;16.67;100.00;100752.13;5066571;28;20052;-77
2023/08/31 08:48:08;;;;;;;1.83;1.00;;;;;;;16.65;100.00;100751.25;5051627;28;20398;-76
2023/08/31 08:50:37;;;;;;;0.77;0.50;;;;;;;16.76;100.00;100757.19;5020207;28;20045;-75
2023/08/31 08:53:05;;;;;;;4.13;1.13;;;;;;;16.99;100.00;100760.25;5051914;28;20059;-75
2023/08/31 08:55:33;;;;;;;0.95;0.82;;;;;;;17.19;100.00;100755.31;5048528;28;20061;-76
2023/08/31 08:58:00;;;;;;;1.75;0.80;;;;;;;17.40;100.00;100751.22;5045266;28;20240;-76
2023/08/31 09:00:28;;;;;;;3.08;0.70;;;;;;;17.56;100.00;100756.13;5043404;28;20430;-76
2023/08/31 09:02:56;;;;;;;1.25;0.75;;;;;;;17.54;100.00;100748.16;5051270;28;20048;-76
2023/08/31 09:05:23;;;;;;;1.25;0.75;;;;;;;17.37;100.00;100755.75;5010665;28;20056;-77
2023/08/31 09:08:01;;;;;;;1.42;0.65;;;;;;;17.15;100.00;100757.19;5055445;28;20064;-76
2023/08/31 09:10:39;;;;;;;1.65;0.68;;;;;;;16.94;100.00;100755.06;5057204;28;20428;-76
2023/08/31 09:13:12;;;;;;;4.63;0.73;;;;;;;16.78;100.00;100754.50;5061128;28;20045;-76
2023/08/31 09:15:42;;;;;;;1.58;0.68;;;;;;;16.57;100.00;100767.41;5046818;28;20067;-76
2023/08/31 09:18:15;;;;;;;3.97;0.60;;;;;;;16.45;100.00;100766.84;5039210;28;20056;-77
2023/08/31 09:20:45;;;;;;;4.18;0.60;;;;;;;16.51;100.00;100769.34;5009265;28;20049;-76
2023/08/31 09:23:14;;;;;;;3.33;0.73;;;;;;;16.65;100.00;100763.69;5063704;28;20642;-76
2023/08/31 09:25:49;;;;;;;2.47;0.50;;;;;;;16.87;100.00;100758.78;5059838;28;20052;-77
2023/08/31 09:28:21;;;;;;;0.73;0.60;;;;;;;16.92;100.00;100770.22;5054753;28;20052;-76
2023/08/31 09:30:50;;;;;;;1.48;0.40;;;;;;;16.94;100.00;100776.38;5052037;28;20063;-75
2023/08/31 09:33:20;;;;;;;2.25;0.50;;;;;;;17.01;100.00;100764.63;5041582;28;20814;-76
2023/08/31 09:36:01;;;;;;;2.63;0.82;;;;;;;17.11;100.00;100770.63;5037594;28;20044;-76
2023/08/31 09:38:28;;;;;;;1.55;0.45;;;;;;;17.22;100.00;100767.66;5037581;28;20048;-76
2023/08/31 09:41:06;;;;;;;1.27;0.50;;;;;;;17.33;100.00;100766.50;5063595;28;20489;-77
2023/08/31 09:43:34;;;;;;;1.52;0.85;;;;;;;17.48;100.00;100777.66;5033275;28;20041;-77
2023/08/31 09:46:04;;;;;;;2.20;0.80;;;;;;;17.59;100.00;100766.72;5061414;28;20060;-77
2023/08/31 09:48:32;;;;;;;1.35;0.68;;;;;;;17.69;100.00;100766.44;5045237;28;20049;-76
2023/08/31 09:51:04;;;;;;;1.35;0.63;;;;;;;17.78;100.00;100759.94;5034356;28;20047;-76
2023/08/31 09:53:31;;;;;;;4.78;1.58;;;;;;;17.85;100.00;100766.03;5068159;28;20048;-76
2023/08/31 09:56:00;;;;;;;3.63;0.73;;;;;;;17.83;100.00;100770.50;5044454;28;20060;-76
2023/08/31 09:58:28;;;;;;;0.65;0.47;;;;;;;17.66;100.00;100766.50;5049566;28;20041;-78
2023/08/31 10:00:58;;;;;;;2.47;0.70;;;;;;;17.61;100.00;100754.22;5038304;28;20053;-76
2023/08/31 10:03:27;;;;;;;2.33;0.95;;;;;;;17.72;100.00;100753.00;5047775;28;20057;-77
2023/08/31 10:05:56;;;;;;;0.95;0.75;;;;;;;17.94;100.00;100760.44;5041283;28;20049;-77
2023/08/31 10:08:28;;;;;;;2.70;0.70;;;;;;;18.20;100.00;100767.66;5012077;28;20052;-76
2023/08/31 10:10:57;;;;;;;3.78;1.20;;;;;;;18.03;100.00;100815.28;5040065;28;20052;-77
2023/08/31 10:13:25;;;;;;;3.03;1.13;;;;;;;17.26;100.00;100814.63;5015664;28;20053;-77
2023/08/31 10:15:53;;;;;;;1.55;1.00;;;;;;;16.69;100.00;100805.28;5068225;28;20044;-76
2023/08/31 10:18:21;;;;;;;2.35;0.60;;;;;;;16.19;100.00;100802.81;5064172;28;20079;-77
2023/08/31 10:20:49;;;;;;;2.17;0.63;;;;;;;15.86;100.00;100809.69;5031099;28;20064;-77
2023/08/31 10:23:16;;;;;;;4.13;1.00;;;;;;;15.66;100.00;100810.91;5008301;28;20048;-76
2023/08/31 10:25:49;;;;;;;1.67;0.98;;;;;;;15.50;100.00;100812.97;5062031;28;20045;-77
2023/08/31 10:28:25;;;;;;;0.65;0.60;;;;;;;15.42;100.00;100821.97;5041783;28;20045;-77
2023/08/31 10:31:08;;;;;;;1.75;0.75;;;;;;;15.36;100.00;100809.66;5060114;28;20045;-77
2023/08/31 10:34:03;;;;;;;5.25;0.93;;;;;;;15.45;100.00;100812.16;5043779;28;20049;-76
2023/08/31 10:36:38;;;;;;;1.83;0.90;;;;;;;15.61;100.00;100810.09;5050551;28;20068;-76
2023/08/31 10:39:19;;;;;;;4.55;1.30;;;;;;;15.85;100.00;100807.94;5028481;28;20048;-76
2023/08/31 10:41:57;;;;;;;2.80;0.90;;;;;;;16.00;100.00;100815.63;5054618;28;20052;-77
2023/08/31 10:44:30;;;;;;;1.95;0.73;;;;;;;16.12;100.00;100807.41;5035721;28;20052;-77
2023/08/31 10:47:04;;;;;;;2.25;0.85;;;;;;;16.26;100.00;100803.59;5037689;28;20048;-77
2023/08/31 10:49:36;;;;;;;1.85;0.98;;;;;;;16.41;100.00;100815.66;5059593;28;20052;-76
2023/08/31 10:52:18;;;;;;;2.92;0.90;;;;;;;16.55;100.00;100809.13;5053796;28;20052;-77
2023/08/31 10:55:05;;;;;;;2.58;0.90;;;;;;;16.63;100.00;100803.63;5059963;28;20063;-76
2023/08/31 10:57:35;;;;;;;3.33;0.80;;;;;;;16.60;100.00;100802.81;5042076;28;20083;-77
2023/08/31 11:00:04;;;;;;;0.85;0.85;;;;;;;16.46;100.00;100819.09;5053083;28;20056;-77
2023/08/31 11:02:51;;;;;;;4.03;0.90;;;;;;;16.29;100.00;100814.13;5042065;28;20049;-77
2023/08/31 11:05:19;;;;;;;2.53;0.75;;;;;;;16.14;100.00;100813.56;5038695;28;20059;-77
2023/08/31 11:07:52;;;;;;;1.77;0.57;;;;;;;16.03;100.00;100830.59;5052332;28;20049;-77
2023/08/31 11:10:29;;;;;;;1.27;0.63;;;;;;;15.84;100.00;100822.13;5029734;28;20505;-76
2023/08/31 11:12:57;;;;;;;0.95;0.70;;;;;;;15.69;100.00;100832.13;5061249;28;20482;-77
2023/08/31 11:15:26;;;;;;;3.70;0.65;;;;;;;15.60;100.00;100827.84;5051791;28;20053;-77
2023/08/31 11:17:58;;;;;;;1.35;0.80;;;;;;;15.53;100.00;100826.19;5050624;28;20501;-77
2023/08/31 11:20:29;;;;;;;1.17;0.60;;;;;;;15.53;100.00;100817.34;5046833;28;20052;-77
2023/08/31 11:22:56;;;;;;;0.88;0.68;;;;;;;15.57;100.00;100830.53;5033618;28;20040;-76
2023/08/31 11:25:24;;;;;;;0.95;0.80;;;;;;;15.64;100.00;100830.44;5001658;28;20049;-77